Time;durP1;ratioP1;P1;durP2;ratioP2;P2;SDS_P1;SDS_P2;PMS_P1;PMS_P2;Temp;Humidity;BMP_temperature;BMP_pressure;BME280_temperature;BME280_humidity;BME280_pressure;Samples;Min_cycle;Max_cycle;Signal;HPM_P1;HPM_P2
2022/09/23 00:00:30;;;;;;;13.35;10.48;;;11.20;99.90;;;;;;5042670;28;20405;-75
2022/09/23 00:02:55;;;;;;;13.77;11.30;;;11.20;99.90;;;;;;5050574;28;20405;-74
2022/09/23 00:05:21;;;;;;;12.52;10.70;;;11.20;99.90;;;;;;5050455;28;20406;-74
2022/09/23 00:07:48;;;;;;;11.90;10.70;;;11.10;99.90;;;;;;5049874;28;20409;-75
2022/09/23 00:10:13;;;;;;;13.65;11.48;;;11.10;99.90;;;;;;5050281;28;20962;-75
2022/09/23 00:12:39;;;;;;;16.50;11.87;;;11.10;99.90;;;;;;5029128;28;20507;-74
2022/09/23 00:15:05;;;;;;;14.15;11.43;;;11.10;99.90;;;;;;5042800;28;20401;-75
2022/09/23 00:17:31;;;;;;;13.10;11.70;;;11.00;99.90;;;;;;5050526;28;20428;-74
2022/09/23 00:19:56;;;;;;;14.97;12.17;;;11.00;99.90;;;;;;5049846;28;20401;-74
2022/09/23 00:22:22;;;;;;;13.75;11.60;;;11.00;99.90;;;;;;5063085;28;20887;-74
2022/09/23 00:24:48;;;;;;;12.80;11.60;;;11.00;99.90;;;;;;5050144;28;20405;-75
2022/09/23 00:27:13;;;;;;;14.88;12.43;;;11.00;99.90;;;;;;5050110;28;20398;-75
2022/09/23 00:29:39;;;;;;;16.13;12.27;;;10.90;99.90;;;;;;5049829;28;20484;-74
2022/09/23 00:32:05;;;;;;;15.00;12.80;;;10.90;99.90;;;;;;5015530;28;20463;-74
2022/09/23 00:34:30;;;;;;;14.83;12.93;;;10.90;99.90;;;;;;5049433;28;20470;-74
2022/09/23 00:36:56;;;;;;;15.10;12.32;;;10.90;99.90;;;;;;5050222;28;20405;-75
2022/09/23 00:39:25;;;;;;;14.75;12.93;;;10.90;99.90;;;;;;5050060;28;21120;-75
2022/09/23 00:41:51;;;;;;;16.57;13.73;;;10.90;99.90;;;;;;5049583;28;20413;-74
2022/09/23 00:44:39;;;;;;;15.77;13.53;;;10.80;99.90;;;;;;5049693;28;20969;-74
2022/09/23 00:47:11;;;;;;;14.68;13.18;;;10.80;99.90;;;;;;5049818;28;20492;-75
2022/09/23 00:49:36;;;;;;;15.07;13.52;;;10.80;99.90;;;;;;5049232;28;20484;-74
2022/09/23 00:52:09;;;;;;;14.20;12.70;;;10.80;99.90;;;;;;5040810;28;20487;-74
2022/09/23 00:54:35;;;;;;;13.77;12.32;;;10.80;99.90;;;;;;5051959;28;20409;-74
2022/09/23 00:57:02;;;;;;;16.03;13.17;;;10.80;99.90;;;;;;5031526;28;20911;-74
2022/09/23 00:59:28;;;;;;;15.02;13.18;;;10.80;99.90;;;;;;5049293;28;20489;-75
2022/09/23 01:01:56;;;;;;;16.40;12.40;;;10.80;99.90;;;;;;5048968;28;20488;-74
2022/09/23 01:04:24;;;;;;;14.82;12.50;;;10.80;99.90;;;;;;5049130;28;20972;-73
2022/09/23 01:06:50;;;;;;;13.82;12.07;;;10.80;99.90;;;;;;5049296;28;20446;-74
2022/09/23 01:09:17;;;;;;;14.80;11.53;;;10.80;99.90;;;;;;5031309;28;21175;-74
2022/09/23 01:12:18;;;;;;;15.15;12.48;;;10.80;99.90;;;;;;5048874;28;20919;-74
2022/09/23 01:15:14;;;;;;;13.17;11.77;;;10.80;99.90;;;;;;5037872;28;20795;-75
2022/09/23 01:17:46;;;;;;;14.32;12.25;;;10.80;99.90;;;;;;5031262;28;20448;-75
2022/09/23 01:20:40;;;;;;;15.57;12.80;;;10.70;99.90;;;;;;5048807;28;20414;-74
2022/09/23 01:24:04;;;;;;;15.02;12.10;;;10.80;99.90;;;;;;5027642;28;20419;-74
2022/09/23 01:27:13;;;;;;;15.32;12.13;;;10.70;99.90;;;;;;5033040;28;20493;-74
2022/09/23 01:30:00;;;;;;;15.25;12.02;;;10.70;99.90;;;;;;5041095;28;20413;-74
2022/09/23 01:32:44;;;;;;;13.93;12.40;;;10.70;99.90;;;;;;5037615;28;20402;-74
2022/09/23 01:35:45;;;;;;;14.98;12.52;;;10.70;99.90;;;;;;5048869;28;20409;-74
2022/09/23 01:38:25;;;;;;;15.23;13.35;;;10.70;99.90;;;;;;5048652;28;20456;-74
2022/09/23 01:41:03;;;;;;;13.63;12.00;;;10.70;99.90;;;;;;5048466;28;20477;-74
2022/09/23 01:44:01;;;;;;;14.47;12.20;;;10.70;99.90;;;;;;5048699;28;20496;-74
2022/09/23 01:46:33;;;;;;;13.82;11.98;;;10.70;99.90;;;;;;5048280;28;20390;-74
2022/09/23 01:49:14;;;;;;;17.00;12.85;;;10.60;99.90;;;;;;5031110;28;20401;-75
2022/09/23 01:51:48;;;;;;;14.43;12.52;;;10.60;99.90;;;;;;5041087;28;20489;-74
2022/09/23 01:54:23;;;;;;;16.83;13.10;;;10.70;99.90;;;;;;5048616;28;20405;-74
2022/09/23 01:56:56;;;;;;;14.65;12.57;;;10.60;99.90;;;;;;5048685;28;20413;-74
2022/09/23 01:59:33;;;;;;;15.82;12.73;;;10.60;99.90;;;;;;5048073;28;20401;-74
2022/09/23 02:02:27;;;;;;;15.03;12.37;;;10.60;99.90;;;;;;5048005;28;20514;-74
2022/09/23 02:05:16;;;;;;;14.32;12.27;;;10.60;99.90;;;;;;5047549;28;20469;-74
2022/09/23 02:07:51;;;;;;;14.20;12.20;;;10.60;99.90;;;;;;5030126;28;20414;-74
2022/09/23 02:10:35;;;;;;;15.80;12.20;;;10.60;99.90;;;;;;5030221;28;20791;-74
2022/09/23 02:13:14;;;;;;;14.07;12.52;;;10.60;99.90;;;;;;5035585;28;20437;-75
2022/09/23 02:15:47;;;;;;;15.25;12.43;;;10.60;99.90;;;;;;5047900;28;20416;-74
2022/09/23 02:18:19;;;;;;;15.20;12.23;;;10.60;99.90;;;;;;5048143;28;20413;-74
2022/09/23 02:20:46;;;;;;;14.88;12.43;;;10.60;99.90;;;;;;5060355;28;20453;-74
2022/09/23 02:23:16;;;;;;;14.13;12.68;;;10.60;99.90;;;;;;5047595;28;20394;-74
2022/09/23 02:26:10;;;;;;;14.40;12.52;;;10.60;99.90;;;;;;5047676;28;20406;-74
2022/09/23 02:28:50;;;;;;;16.25;12.57;;;10.60;99.90;;;;;;5003724;28;20946;-74
2022/09/23 02:31:39;;;;;;;13.45;12.05;;;10.60;99.90;;;;;;5035967;28;20436;-74
2022/09/23 02:34:13;;;;;;;14.25;11.82;;;10.50;99.90;;;;;;5046466;28;20477;-74
2022/09/23 02:36:44;;;;;;;14.38;12.25;;;10.50;99.90;;;;;;5047708;28;20408;-75
2022/09/23 02:39:12;;;;;;;12.70;11.23;;;10.50;99.90;;;;;;5010201;28;20921;-74
2022/09/23 02:41:54;;;;;;;12.87;11.30;;;10.50;99.90;;;;;;5042377;28;20436;-74
2022/09/23 02:44:21;;;;;;;12.95;11.60;;;10.50;99.90;;;;;;5047409;28;20412;-75
2022/09/23 02:46:49;;;;;;;12.63;10.77;;;10.50;99.90;;;;;;5047355;28;20412;-74
2022/09/23 02:49:24;;;;;;;12.68;10.32;;;10.50;99.90;;;;;;5029383;28;20410;-74
2022/09/23 02:51:50;;;;;;;11.13;9.80;;;10.40;99.90;;;;;;5046727;28;20428;-75
2022/09/23 02:54:19;;;;;;;12.65;9.50;;;10.40;99.90;;;;;;5046275;28;20441;-75
2022/09/23 02:56:48;;;;;;;13.82;9.80;;;10.40;99.90;;;;;;5047428;28;20410;-74
2022/09/23 02:59:18;;;;;;;12.63;10.40;;;10.40;99.90;;;;;;5046875;28;20893;-74
2022/09/23 03:02:42;;;;;;;11.20;10.00;;;10.40;99.90;;;;;;5047240;28;20903;-74
2022/09/23 03:05:17;;;;;;;13.25;10.40;;;10.40;99.90;;;;;;5036158;28;20413;-74
2022/09/23 03:08:08;;;;;;;13.33;11.33;;;10.30;99.90;;;;;;5047445;28;20489;-74
2022/09/23 03:10:52;;;;;;;12.80;10.57;;;10.30;99.90;;;;;;5046990;28;20433;-74
2022/09/23 03:13:49;;;;;;;12.77;10.63;;;10.30;99.90;;;;;;5047390;28;20503;-74
2022/09/23 03:16:24;;;;;;;13.10;10.85;;;10.20;99.90;;;;;;5046392;28;20414;-74
2022/09/23 03:19:14;;;;;;;12.02;10.75;;;10.20;99.90;;;;;;5050767;28;20484;-75
2022/09/23 03:21:50;;;;;;;12.05;10.55;;;10.20;99.90;;;;;;5016449;28;20417;-74
2022/09/23 03:24:19;;;;;;;12.30;10.87;;;10.10;99.90;;;;;;5051589;28;20502;-74
2022/09/23 03:26:46;;;;;;;12.80;11.25;;;10.10;99.90;;;;;;5046146;28;20450;-75
2022/09/23 03:29:14;;;;;;;12.73;11.40;;;10.10;99.90;;;;;;5033426;28;20417;-74
2022/09/23 03:31:41;;;;;;;13.48;10.73;;;10.00;99.90;;;;;;5033085;28;20478;-75
2022/09/23 03:34:20;;;;;;;13.10;10.00;;;10.00;99.90;;;;;;5050531;28;20405;-74
2022/09/23 03:37:06;;;;;;;11.35;10.23;;;10.00;99.90;;;;;;5050837;28;20922;-74
2022/09/23 03:39:45;;;;;;;13.38;10.65;;;10.00;99.90;;;;;;5038438;28;20456;-74
2022/09/23 03:42:31;;;;;;;12.50;10.77;;;10.00;99.90;;;;;;5050901;28;20776;-74
2022/09/23 03:44:57;;;;;;;12.68;11.27;;;10.00;99.90;;;;;;5050950;28;20906;-74
2022/09/23 03:47:25;;;;;;;12.90;10.32;;;9.90;99.90;;;;;;5031952;28;20420;-74
2022/09/23 03:49:52;;;;;;;12.32;11.05;;;9.90;99.90;;;;;;5050258;28;20428;-74
2022/09/23 03:52:20;;;;;;;13.27;10.88;;;9.90;99.90;;;;;;5032793;28;20493;-74
2022/09/23 03:54:46;;;;;;;12.25;10.52;;;9.80;99.90;;;;;;5050521;28;20427;-75
2022/09/23 03:57:12;;;;;;;12.77;11.00;;;9.80;99.90;;;;;;5050341;28;20755;-75
2022/09/23 03:59:38;;;;;;;13.35;10.70;;;9.80;99.90;;;;;;5050441;28;20626;-75
2022/09/23 04:02:06;;;;;;;13.70;10.93;;;9.80;99.90;;;;;;5050837;28;20405;-75
2022/09/23 04:04:34;;;;;;;14.30;11.65;;;9.80;99.90;;;;;;5050668;28;20413;-74
2022/09/23 04:07:01;;;;;;;13.23;10.95;;;9.80;99.90;;;;;;5050479;28;20405;-75
2022/09/23 04:09:26;;;;;;;12.45;10.52;;;9.70;99.90;;;;;;5037235;28;20413;-74
2022/09/23 04:11:52;;;;;;;12.43;10.70;;;9.70;99.90;;;;;;5050261;28;20456;-74
2022/09/23 04:14:19;;;;;;;13.48;11.10;;;9.80;99.90;;;;;;5050315;28;20480;-74
2022/09/23 04:16:47;;;;;;;13.77;11.20;;;9.70;99.90;;;;;;5050157;28;20402;-74
2022/09/23 04:19:13;;;;;;;13.52;11.93;;;9.70;99.90;;;;;;5050282;28;20408;-74
2022/09/23 04:21:39;;;;;;;15.10;11.60;;;9.70;99.90;;;;;;5049472;28;21000;-74
2022/09/23 04:24:06;;;;;;;14.40;11.90;;;9.60;99.90;;;;;;5031441;28;20424;-74
2022/09/23 04:26:32;;;;;;;12.95;11.57;;;9.60;99.90;;;;;;5049781;28;20397;-74
2022/09/23 04:28:58;;;;;;;15.13;12.33;;;9.60;99.90;;;;;;5049774;28;20397;-74
2022/09/23 04:31:24;;;;;;;14.10;12.00;;;9.60;99.90;;;;;;5049774;28;20567;-75
2022/09/23 04:33:52;;;;;;;13.60;12.10;;;9.50;99.90;;;;;;5050223;28;20405;-75
2022/09/23 04:36:18;;;;;;;14.07;12.02;;;9.50;99.90;;;;;;5049808;28;20405;-74
2022/09/23 04:38:45;;;;;;;15.23;11.90;;;9.50;99.90;;;;;;5049497;28;20574;-74
2022/09/23 04:41:11;;;;;;;14.50;11.85;;;9.50;99.90;;;;;;5032293;28;20414;-74
2022/09/23 04:43:36;;;;;;;14.68;12.43;;;9.50;99.90;;;;;;5049500;28;20409;-74
2022/09/23 04:46:05;;;;;;;13.98;12.05;;;9.40;99.90;;;;;;5049696;28;20451;-74
2022/09/23 04:48:31;;;;;;;13.75;12.07;;;9.40;99.90;;;;;;5049596;28;20803;-74
2022/09/23 04:51:16;;;;;;;14.55;12.70;;;9.40;99.90;;;;;;5054879;28;20485;-74
2022/09/23 04:53:44;;;;;;;15.13;12.85;;;9.40;99.90;;;;;;5036664;28;20414;-74
2022/09/23 04:56:22;;;;;;;13.87;12.47;;;9.40;99.90;;;;;;5049798;28;20615;-74
2022/09/23 04:58:48;;;;;;;14.93;12.57;;;9.30;99.90;;;;;;5049062;28;21108;-75
2022/09/23 05:01:23;;;;;;;15.10;13.00;;;9.40;99.90;;;;;;5049538;28;20421;-74
2022/09/23 05:03:50;;;;;;;14.15;12.60;;;9.40;99.90;;;;;;5049676;28;20919;-74
2022/09/23 05:06:16;;;;;;;14.02;12.50;;;9.40;99.90;;;;;;5048892;28;20405;-74
2022/09/23 05:08:47;;;;;;;13.88;12.40;;;9.30;99.90;;;;;;5049566;28;20402;-74
2022/09/23 05:11:13;;;;;;;15.52;13.18;;;9.30;99.90;;;;;;5031050;28;20457;-74
2022/09/23 05:13:38;;;;;;;13.97;12.47;;;9.30;99.90;;;;;;5031535;28;20816;-74
2022/09/23 05:16:07;;;;;;;13.97;12.37;;;9.40;99.90;;;;;;5048986;28;20492;-74
2022/09/23 05:18:34;;;;;;;12.98;11.68;;;9.40;99.90;;;;;;5054726;28;20406;-74
2022/09/23 05:21:01;;;;;;;13.75;12.00;;;9.40;99.90;;;;;;5059556;28;20402;-74
2022/09/23 05:23:27;;;;;;;15.70;12.02;;;9.40;99.90;;;;;;5060146;28;20394;-74
2022/09/23 05:26:00;;;;;;;15.55;12.02;;;9.40;99.90;;;;;;5041402;28;20448;-74
2022/09/23 05:28:28;;;;;;;13.48;11.85;;;9.40;99.90;;;;;;5050315;28;20409;-74
2022/09/23 05:31:07;;;;;;;12.70;11.35;;;9.50;99.90;;;;;;5049352;28;20789;-75
2022/09/23 05:33:35;;;;;;;13.52;11.32;;;9.50;99.90;;;;;;5049005;28;20409;-74
2022/09/23 05:36:01;;;;;;;12.85;11.23;;;9.50;99.90;;;;;;5048485;28;20405;-75
2022/09/23 05:38:30;;;;;;;12.27;10.98;;;9.50;99.90;;;;;;5048798;28;20405;-73
2022/09/23 05:40:56;;;;;;;12.20;10.70;;;9.50;99.90;;;;;;5045425;28;20716;-74
2022/09/23 05:43:23;;;;;;;13.13;10.73;;;9.50;99.90;;;;;;5045714;28;20531;-73
2022/09/23 05:45:48;;;;;;;14.60;10.63;;;9.50;99.90;;;;;;5047005;28;20416;-74
2022/09/23 05:48:14;;;;;;;12.02;10.73;;;9.60;99.90;;;;;;5051347;28;20493;-74
2022/09/23 05:50:48;;;;;;;12.70;11.33;;;9.60;99.90;;;;;;5057969;28;20863;-74
2022/09/23 05:53:14;;;;;;;12.27;10.98;;;9.50;99.90;;;;;;5059298;28;21034;-74
2022/09/23 05:55:39;;;;;;;12.57;10.73;;;9.60;99.90;;;;;;5059760;28;20429;-74
2022/09/23 05:58:05;;;;;;;13.70;10.80;;;9.60;99.90;;;;;;5058383;28;20470;-74
2022/09/23 06:00:31;;;;;;;13.23;11.00;;;9.60;99.90;;;;;;5053607;28;20409;-74
2022/09/23 06:02:56;;;;;;;13.60;11.65;;;9.60;99.90;;;;;;5048785;28;20444;-74
2022/09/23 06:05:22;;;;;;;13.67;10.83;;;9.60;99.90;;;;;;5048598;28;20406;-74
2022/09/23 06:07:47;;;;;;;12.60;11.10;;;9.70;99.90;;;;;;5031127;28;20819;-74
2022/09/23 06:10:13;;;;;;;13.10;11.67;;;9.70;99.90;;;;;;5048620;28;20961;-74
2022/09/23 06:12:39;;;;;;;13.90;11.30;;;9.70;99.90;;;;;;5048515;28;20427;-74
2022/09/23 06:15:05;;;;;;;14.27;11.18;;;9.80;99.90;;;;;;5048183;28;20933;-74
2022/09/23 06:17:31;;;;;;;12.88;11.15;;;9.80;99.90;;;;;;5030410;28;20403;-74
2022/09/23 06:19:57;;;;;;;15.23;11.32;;;9.80;99.90;;;;;;5048188;28;20413;-74
2022/09/23 06:22:26;;;;;;;13.70;10.93;;;9.80;99.90;;;;;;5052287;28;20781;-74
2022/09/23 06:24:51;;;;;;;14.48;11.13;;;9.90;99.90;;;;;;5056537;28;20397;-74
2022/09/23 06:27:17;;;;;;;14.25;10.60;;;10.00;99.90;;;;;;5029842;28;20934;-74
2022/09/23 06:29:42;;;;;;;16.77;11.60;;;10.10;99.90;;;;;;5047924;28;20421;-75
2022/09/23 06:32:08;;;;;;;15.10;11.55;;;10.10;99.90;;;;;;5047645;28;20420;-74
2022/09/23 06:34:33;;;;;;;15.73;11.47;;;10.20;99.90;;;;;;5048022;28;20501;-75
2022/09/23 06:36:59;;;;;;;15.70;11.73;;;10.20;99.90;;;;;;5047033;28;20417;-75
2022/09/23 06:39:25;;;;;;;13.00;11.60;;;10.30;99.90;;;;;;5047776;28;20480;-74
2022/09/23 06:41:50;;;;;;;14.95;11.40;;;10.30;99.90;;;;;;5050864;28;20412;-74
2022/09/23 06:44:16;;;;;;;14.53;11.63;;;10.30;99.90;;;;;;5056157;28;20404;-75
2022/09/23 06:46:42;;;;;;;14.67;11.03;;;10.40;99.90;;;;;;5046278;28;20460;-75
2022/09/23 06:49:07;;;;;;;12.90;10.87;;;10.40;99.90;;;;;;5047534;28;20408;-74
2022/09/23 06:51:33;;;;;;;16.88;11.23;;;10.50;99.90;;;;;;5046454;28;20433;-74
2022/09/23 06:53:58;;;;;;;14.53;11.37;;;10.50;99.90;;;;;;5047293;28;20401;-74
2022/09/23 06:56:24;;;;;;;13.55;11.82;;;10.50;99.90;;;;;;5047972;28;20394;-74
2022/09/23 06:58:51;;;;;;;13.60;11.57;;;10.50;99.90;;;;;;5059617;28;20756;-74
2022/09/23 07:01:18;;;;;;;14.95;12.30;;;10.60;99.90;;;;;;5047560;28;20451;-74
2022/09/23 07:03:46;;;;;;;14.40;12.05;;;10.60;99.90;;;;;;5047397;28;20872;-74
2022/09/23 07:06:12;;;;;;;14.20;11.55;;;10.60;99.90;;;;;;5047381;28;20459;-74
2022/09/23 07:08:41;;;;;;;15.27;11.63;;;10.70;99.90;;;;;;5047605;28;20878;-74
2022/09/23 07:11:12;;;;;;;16.48;11.75;;;10.80;99.90;;;;;;5047234;28;20931;-74
2022/09/23 07:13:39;;;;;;;15.43;11.70;;;10.90;99.90;;;;;;5030031;28;20927;-74
2022/09/23 07:16:05;;;;;;;13.35;10.85;;;11.00;99.90;;;;;;5029930;28;20418;-74
2022/09/23 07:18:33;;;;;;;13.38;10.95;;;11.10;99.90;;;;;;5047294;28;20439;-74
2022/09/23 07:21:07;;;;;;;13.05;10.60;;;11.30;99.90;;;;;;5029526;28;20860;-74
2022/09/23 07:23:33;;;;;;;13.73;10.90;;;11.40;99.90;;;;;;5047525;28;21323;-74
2022/09/23 07:25:58;;;;;;;14.18;11.07;;;11.50;99.90;;;;;;5047022;28;20417;-74
2022/09/23 07:28:26;;;;;;;13.70;10.80;;;11.60;99.90;;;;;;5047703;28;20737;-74
2022/09/23 07:30:52;;;;;;;13.07;10.50;;;11.70;99.90;;;;;;5029532;28;20436;-74
2022/09/23 07:33:18;;;;;;;13.52;10.68;;;11.80;99.90;;;;;;5025632;28;20399;-74
2022/09/23 07:35:44;;;;;;;15.05;10.75;;;11.80;99.90;;;;;;5044178;28;20412;-73
2022/09/23 07:38:10;;;;;;;12.43;10.60;;;11.90;99.90;;;;;;5047718;28;20480;-74
2022/09/23 07:40:37;;;;;;;15.02;11.48;;;12.00;99.90;;;;;;5047438;28;20405;-74
2022/09/23 07:43:04;;;;;;;16.70;11.13;;;12.10;99.90;;;;;;5046683;28;20911;-75
2022/09/23 07:45:32;;;;;;;14.25;10.95;;;12.10;99.90;;;;;;5046853;28;20408;-74
2022/09/23 07:47:57;;;;;;;11.75;10.27;;;12.10;99.90;;;;;;5047224;28;20440;-74
2022/09/23 07:50:23;;;;;;;14.07;10.37;;;12.10;99.90;;;;;;5028519;28;20860;-75
2022/09/23 07:52:51;;;;;;;14.88;10.18;;;12.20;99.90;;;;;;5046829;28;20830;-74
2022/09/23 07:55:18;;;;;;;12.70;10.25;;;12.20;99.90;;;;;;5046626;28;20401;-74
2022/09/23 07:57:44;;;;;;;13.00;10.63;;;12.20;99.90;;;;;;5046471;28;20492;-74
2022/09/23 08:00:12;;;;;;;13.93;11.15;;;12.20;99.90;;;;;;5046821;28;20393;-74
2022/09/23 08:02:39;;;;;;;14.13;11.52;;;12.20;99.90;;;;;;5046766;28;20492;-74
2022/09/23 08:05:05;;;;;;;15.98;11.90;;;12.30;99.90;;;;;;5049599;28;20494;-74
2022/09/23 08:07:33;;;;;;;14.68;11.43;;;12.30;99.90;;;;;;5049789;28;20397;-74
2022/09/23 08:09:59;;;;;;;15.85;11.70;;;12.40;99.90;;;;;;5050383;28;20923;-74
2022/09/23 08:12:27;;;;;;;15.45;11.48;;;12.50;99.90;;;;;;5050343;28;20401;-74
2022/09/23 08:14:53;;;;;;;13.35;11.07;;;12.50;99.90;;;;;;5032096;28;20409;-75
2022/09/23 08:17:19;;;;;;;14.70;10.88;;;12.60;99.90;;;;;;5050426;28;20402;-74
2022/09/23 08:19:44;;;;;;;14.40;10.67;;;12.70;99.90;;;;;;5050286;28;20871;-74
2022/09/23 08:22:11;;;;;;;14.43;10.70;;;12.80;99.90;;;;;;5049824;28;20409;-74
2022/09/23 08:24:36;;;;;;;12.50;10.45;;;12.80;99.90;;;;;;5049943;28;20433;-74
2022/09/23 08:27:02;;;;;;;13.93;11.30;;;12.90;99.90;;;;;;5050233;28;20433;-74
2022/09/23 08:29:28;;;;;;;14.60;10.88;;;13.00;99.90;;;;;;5049932;28;20398;-75
2022/09/23 08:31:53;;;;;;;14.80;11.23;;;13.00;99.90;;;;;;5049759;28;20417;-74
2022/09/23 08:34:20;;;;;;;13.95;10.45;;;13.10;99.90;;;;;;5032249;28;20806;-75
2022/09/23 08:36:46;;;;;;;15.40;11.27;;;13.20;99.90;;;;;;5031363;28;20428;-74
2022/09/23 08:39:14;;;;;;;14.82;10.88;;;13.20;99.90;;;;;;5049948;28;20377;-74
2022/09/23 08:42:01;;;;;;;14.02;11.18;;;13.30;99.90;;;;;;5032081;28;20784;-75
2022/09/23 08:44:40;;;;;;;12.98;10.48;;;13.40;99.90;;;;;;5049711;28;20476;-74
2022/09/23 08:47:12;;;;;;;15.93;10.27;;;13.50;99.90;;;;;;5050336;28;20562;-75
2022/09/23 08:49:56;;;;;;;12.68;10.23;;;13.70;99.90;;;;;;5031780;28;20919;-75
2022/09/23 08:52:38;;;;;;;12.57;10.40;;;13.80;99.90;;;;;;5049900;28;20468;-74
2022/09/23 08:55:05;;;;;;;15.38;10.27;;;13.90;99.90;;;;;;5012891;28;20446;-74
2022/09/23 08:58:08;;;;;;;16.10;11.38;;;14.00;99.90;;;;;;5028334;28;20769;-75
2022/09/23 09:00:40;;;;;;;13.27;10.18;;;14.10;99.90;;;;;;5030857;28;20420;-74
2022/09/23 09:03:22;;;;;;;12.65;10.50;;;14.20;99.90;;;;;;5028612;28;20407;-74
2022/09/23 09:05:48;;;;;;;12.75;9.88;;;14.40;99.90;;;;;;5048829;28;20463;-74
2022/09/23 09:08:23;;;;;;;12.82;9.75;;;14.50;99.90;;;;;;5049338;28;20499;-74
2022/09/23 09:10:54;;;;;;;14.50;9.73;;;14.60;99.90;;;;;;5031554;28;20883;-73
2022/09/23 09:13:30;;;;;;;13.68;10.10;;;14.80;99.90;;;;;;5048466;28;20422;-75
2022/09/23 09:16:20;;;;;;;14.57;9.60;;;15.00;99.90;;;;;;5049267;28;20416;-75
2022/09/23 09:18:54;;;;;;;10.57;9.20;;;15.20;99.90;;;;;;5038985;28;20500;-74
2022/09/23 09:21:41;;;;;;;12.77;8.93;;;15.30;99.90;;;;;;5052504;28;20408;-73
2022/09/23 09:24:28;;;;;;;11.88;9.05;;;15.40;99.90;;;;;;5037281;28;20409;-74
2022/09/23 09:26:54;;;;;;;11.77;9.18;;;15.50;99.90;;;;;;5048944;28;20406;-74
2022/09/23 09:29:28;;;;;;;13.10;9.67;;;15.60;99.90;;;;;;5048858;28;21233;-72
2022/09/23 09:31:55;;;;;;;13.60;9.68;;;15.60;99.90;;;;;;5048720;28;20460;-73
2022/09/23 09:34:29;;;;;;;13.30;9.45;;;15.50;99.90;;;;;;5014521;28;20433;-74
2022/09/23 09:37:11;;;;;;;15.50;10.83;;;15.50;99.90;;;;;;5048280;28;20413;-73
2022/09/23 09:39:37;;;;;;;15.77;11.77;;;15.50;99.90;;;;;;5026983;28;20513;-73
2022/09/23 09:42:05;;;;;;;16.00;11.60;;;15.50;99.90;;;;;;5053513;28;20405;-73
2022/09/23 09:44:43;;;;;;;15.85;11.23;;;15.50;99.90;;;;;;5048601;28;20409;-73
2022/09/23 09:47:31;;;;;;;17.30;11.35;;;15.50;99.90;;;;;;5048061;28;20413;-72
2022/09/23 09:50:12;;;;;;;15.30;11.57;;;15.40;99.90;;;;;;5048638;28;20427;-73
2022/09/23 09:52:41;;;;;;;15.90;11.80;;;15.40;99.90;;;;;;5030440;28;20413;-73
2022/09/23 09:55:13;;;;;;;16.67;11.27;;;15.40;99.90;;;;;;5014473;28;20409;-73
2022/09/23 09:57:54;;;;;;;14.15;10.70;;;15.40;99.90;;;;;;5030069;28;20413;-73
2022/09/23 10:00:25;;;;;;;12.18;10.07;;;15.50;99.90;;;;;;5048345;28;20446;-73
2022/09/23 10:03:01;;;;;;;13.68;9.98;;;15.50;99.90;;;;;;5048436;28;20406;-72
2022/09/23 10:05:49;;;;;;;11.82;9.07;;;15.50;99.90;;;;;;5017248;28;20448;-72
2022/09/23 10:08:18;;;;;;;11.43;9.48;;;15.50;99.90;;;;;;5047920;28;20426;-73
2022/09/23 10:11:10;;;;;;;11.50;8.68;;;15.50;99.90;;;;;;5047958;28;20414;-72
2022/09/23 10:13:36;;;;;;;14.38;9.20;;;15.60;99.90;;;;;;5031648;28;20413;-74
2022/09/23 10:16:04;;;;;;;12.02;9.07;;;15.60;99.90;;;;;;5029946;28;20444;-74
2022/09/23 10:18:46;;;;;;;15.38;10.25;;;15.70;99.90;;;;;;5047632;28;20441;-73
2022/09/23 10:21:14;;;;;;;14.43;9.87;;;15.80;99.90;;;;;;5030055;28;20414;-74
2022/09/23 10:23:44;;;;;;;11.70;9.00;;;15.80;99.90;;;;;;5047804;28;20488;-74
2022/09/23 10:26:11;;;;;;;12.57;9.38;;;15.90;99.90;;;;;;5060388;28;20420;-74
2022/09/23 10:28:47;;;;;;;13.13;8.88;;;16.00;99.90;;;;;;5029424;28;20425;-74
2022/09/23 10:31:26;;;;;;;12.20;8.85;;;16.00;99.90;;;;;;5029416;28;20482;-74
2022/09/23 10:34:19;;;;;;;11.35;8.32;;;16.10;99.90;;;;;;5060976;28;20758;-72
2022/09/23 10:37:00;;;;;;;11.95;8.63;;;16.10;99.90;;;;;;5029592;28;20414;-73
2022/09/23 10:48:40;;;;;;;11.95;8.15;;;16.20;99.90;;;;;;5047727;28;20404;-74
2022/09/23 10:51:39;;;;;;;12.45;8.73;;;16.20;99.90;;;;;;5046921;28;20441;-73
2022/09/23 10:54:20;;;;;;;12.65;8.98;;;16.20;99.90;;;;;;5031240;28;20811;-73
2022/09/23 10:56:53;;;;;;;12.35;8.88;;;16.30;99.90;;;;;;5045996;28;20901;-74
2022/09/23 10:59:52;;;;;;;13.40;8.80;;;16.40;99.90;;;;;;5039004;28;20412;-75
2022/09/23 11:02:45;;;;;;;11.85;8.55;;;16.40;99.90;;;;;;5042530;28;20420;-74
2022/09/23 11:05:14;;;;;;;12.55;8.80;;;16.60;99.90;;;;;;5047116;28;20421;-72
2022/09/23 11:08:17;;;;;;;11.55;8.10;;;16.70;99.90;;;;;;5047002;28;20779;-73
2022/09/23 11:11:07;;;;;;;12.10;8.57;;;16.80;99.90;;;;;;5029913;28;20906;-73
2022/09/23 11:13:57;;;;;;;12.63;8.07;;;16.90;99.90;;;;;;5047048;28;20474;-73
2022/09/23 11:16:48;;;;;;;12.95;7.60;;;17.00;99.90;;;;;;5046562;28;20414;-74
2022/09/23 11:19:35;;;;;;;12.20;7.72;;;17.00;99.90;;;;;;5047529;28;20421;-73
2022/09/23 11:22:07;;;;;;;10.00;7.43;;;17.10;99.90;;;;;;5038293;28;20423;-74
2022/09/23 11:25:12;;;;;;;11.02;6.80;;;17.10;99.90;;;;;;5030780;28;20417;-74
2022/09/23 11:27:49;;;;;;;13.43;7.38;;;17.20;99.80;;;;;;5046994;28;20457;-73
2022/09/23 11:30:19;;;;;;;10.30;6.60;;;17.20;99.80;;;;;;5057290;28;20427;-73
2022/09/23 11:33:12;;;;;;;10.40;6.30;;;17.20;99.50;;;;;;5060582;28;20405;-73
2022/09/23 11:35:46;;;;;;;8.52;5.93;;;17.20;98.80;;;;;;5046648;28;20413;-74
2022/09/23 11:38:32;;;;;;;9.57;6.25;;;17.20;99.10;;;;;;5026516;28;20443;-73
2022/09/23 11:41:20;;;;;;;10.52;6.40;;;17.20;99.30;;;;;;5050377;28;20891;-73
2022/09/23 11:43:51;;;;;;;9.48;6.03;;;17.30;99.40;;;;;;5033204;28;20488;-74
2022/09/23 11:46:52;;;;;;;8.98;6.25;;;17.30;98.80;;;;;;5050304;28;20401;-74
2022/09/23 11:49:31;;;;;;;8.13;5.65;;;17.30;98.80;;;;;;5027855;28;20410;-74
2022/09/23 11:52:00;;;;;;;9.23;6.10;;;17.30;98.80;;;;;;5050572;28;20436;-73
2022/09/23 11:54:35;;;;;;;7.18;5.75;;;17.30;98.90;;;;;;5050676;28;20415;-73
2022/09/23 11:57:06;;;;;;;9.63;5.75;;;17.30;98.90;;;;;;5050056;28;20405;-73
2022/09/23 11:59:46;;;;;;;8.90;6.07;;;17.30;98.60;;;;;;5050634;28;20409;-74
2022/09/23 12:02:27;;;;;;;10.02;5.63;;;17.40;98.80;;;;;;5050617;28;20757;-73
2022/09/23 12:05:05;;;;;;;8.50;5.68;;;17.40;98.70;;;;;;5050351;28;20425;-73
2022/09/23 12:07:45;;;;;;;8.77;6.28;;;17.40;98.90;;;;;;5034352;28;20417;-74
2022/09/23 12:10:12;;;;;;;9.75;5.72;;;17.40;98.90;;;;;;5034165;28;20460;-73
2022/09/23 12:13:03;;;;;;;8.23;6.10;;;17.50;99.10;;;;;;5051771;28;20393;-74
2022/09/23 12:15:36;;;;;;;9.00;5.97;;;17.50;98.50;;;;;;5067774;28;20418;-74
2022/09/23 12:18:38;;;;;;;9.02;5.38;;;17.50;98.90;;;;;;5058084;28;20475;-73
2022/09/23 12:21:12;;;;;;;8.80;5.93;;;17.60;98.80;;;;;;5050680;28;20417;-74
2022/09/23 12:23:56;;;;;;;7.47;5.53;;;17.60;98.70;;;;;;5049884;28;20772;-73
2022/09/23 12:26:24;;;;;;;12.15;6.18;;;17.60;98.40;;;;;;5050364;28;20421;-74
2022/09/23 12:28:53;;;;;;;13.27;6.15;;;17.60;98.40;;;;;;5050461;28;20408;-73
2022/09/23 12:31:29;;;;;;;9.65;5.78;;;17.70;98.60;;;;;;5051316;28;20516;-73
2022/09/23 12:33:59;;;;;;;10.38;6.13;;;17.70;98.70;;;;;;5054780;28;20418;-73
2022/09/23 12:36:32;;;;;;;8.48;5.65;;;17.80;98.50;;;;;;5054804;28;20406;-74
2022/09/23 12:39:06;;;;;;;9.02;5.63;;;17.80;98.40;;;;;;5057039;28;20417;-74
2022/09/23 12:41:37;;;;;;;9.00;5.40;;;17.90;98.20;;;;;;5057188;28;20510;-73
2022/09/23 12:44:14;;;;;;;9.27;5.50;;;17.90;97.90;;;;;;5054217;28;20463;-73
2022/09/23 12:46:44;;;;;;;8.68;6.00;;;18.00;98.10;;;;;;5058754;28;20406;-74
2022/09/23 12:49:27;;;;;;;10.05;6.00;;;18.00;97.90;;;;;;5050658;28;20409;-73
2022/09/23 12:52:16;;;;;;;7.82;5.32;;;18.10;97.60;;;;;;5028706;28;20439;-73
2022/09/23 12:54:47;;;;;;;8.40;5.65;;;18.10;97.60;;;;;;5053039;28;20417;-74
2022/09/23 12:57:33;;;;;;;7.68;5.68;;;18.10;97.80;;;;;;5055130;28;20409;-73
2022/09/23 13:00:06;;;;;;;9.15;5.80;;;18.20;98.00;;;;;;5036262;28;20436;-74
2022/09/23 13:02:39;;;;;;;9.00;5.47;;;18.20;97.70;;;;;;5053735;28;20413;-73
2022/09/23 13:08:14;;;;;;;10.43;6.10;;;18.20;97.80;;;;;;5052663;28;20416;-73
2022/09/23 13:10:42;;;;;;;8.23;5.50;;;18.20;97.80;;;;;;5049471;28;20875;-74
2022/09/23 13:13:21;;;;;;;8.80;6.13;;;18.20;98.00;;;;;;5031431;28;20401;-73
2022/09/23 13:15:47;;;;;;;8.13;5.35;;;18.10;97.60;;;;;;5048821;28;20495;-74